»·PEaware :: UAL1831 KSFO-KLAX

UAL1831 :: KSFO-KLAX

FLIGHT INFORMATION

Flight Status: Arrived
Operator:
United Airlines
More flights by this operator :: More flights under this callsign
Pilot: Alfredo R. (12181)
Aircraft: BOEING 737-800
(B738)
More flights by this aircraft type
Origin: KSFO San Francisco Intl
United States
Destination: KLAX Los Angeles Intl
United States
More flights between these airports :: More routes between these airports
Route: +SSTIK3 EBAYE BURGL IRNMN1
File this flight plan on PilotEdge
Remarks:
Altitude:
(Current/Filed)
37,000ft
Speed:
(Current/Filed)
425kts
Departed: 12-May-18 08:20 PM
Arrived: 12-May-18 09:20 PM
Distance/Time
Traveled:
293nm/1:00
Distance/Time
To Go:
Arrived

Flight Plot

Page will automatically refresh every two minutes.

Flight plan parsing failed; only flown route is shown


Map Options




Map Legend


Flown Route
Filed Route
Departure Airport
Arrival Airport
Navaid (VOR, NDB)
Fix

Horizontal Profiles

Position Reports

Time Latitude Longitude Heading Altitude Ground
Speed
12-May-18 19:57 37.619186 -122.383517 291 30ft 0kts
12-May-18 19:58 37.619186 -122.383517 291 30ft 0kts
12-May-18 19:59 37.619186 -122.383517 291 30ft 0kts
12-May-18 20:00 37.619186 -122.383517 291 30ft 0kts
12-May-18 20:01 37.619186 -122.383517 291 30ft 0kts
12-May-18 20:02 37.619186 -122.383517 291 31ft 0kts
12-May-18 20:03 37.619186 -122.383517 291 31ft 0kts
12-May-18 20:04 37.619061 -122.383106 291 31ft 2kts
12-May-18 20:05 37.618601 -122.383153 27 31ft 2kts
12-May-18 20:06 37.619083 -122.382814 29 31ft 4kts
12-May-18 20:07 37.619191 -122.382738 29 30ft 0kts
12-May-18 20:08 37.619191 -122.382738 29 30ft 0kts
12-May-18 20:09 37.619191 -122.382738 29 30ft 0kts
12-May-18 20:10 37.619191 -122.382738 29 30ft 0kts
12-May-18 20:11 37.619300 -122.382665 27 30ft 2kts
12-May-18 20:12 37.619321 -122.381207 119 30ft 8kts
12-May-18 20:13 37.616939 -122.379521 194 30ft 13kts
12-May-18 20:14 37.613053 -122.382000 207 30ft 17kts
12-May-18 20:15 37.610543 -122.383667 209 30ft 0kts
12-May-18 20:16 37.609104 -122.384786 175 31ft 9kts
12-May-18 20:17 37.608472 -122.383872 115 30ft 0kts
12-May-18 20:18 37.608465 -122.383853 115 30ft 1kts
12-May-18 20:19 37.608886 -122.382275 27 28ft 6kts
12-May-18 20:20 37.622814 -122.373048 28 15ft 158kts
12-May-18 20:21 37.670317 -122.358723 346 1959ft 202kts
12-May-18 20:22 37.691555 -122.411589 236 4200ft 237kts
12-May-18 20:23 37.625916 -122.437787 189 6610ft 276kts
12-May-18 20:24 37.556409 -122.456031 192 9205ft 286kts
12-May-18 20:25 37.473235 -122.473592 163 11164ft 322kts
12-May-18 20:26 37.428715 -122.393292 123 12893ft 345kts
12-May-18 20:27 37.365837 -122.305485 130 15510ft 363kts
12-May-18 20:28 37.298126 -122.213743 129 18083ft 376kts
12-May-18 20:29 37.227959 -122.118905 128 20332ft 393kts
12-May-18 20:30 37.154875 -122.020418 127 22487ft 406kts
12-May-18 20:31 37.087011 -121.929260 127 24199ft 419kts
12-May-18 20:32 37.010012 -121.826071 127 25814ft 436kts
12-May-18 20:33 36.929121 -121.718055 127 27300ft 453kts
12-May-18 20:34 36.851404 -121.614648 128 28694ft 464kts
12-May-18 20:35 36.764649 -121.499666 128 30181ft 472kts
12-May-18 20:36 36.676523 -121.383269 130 31473ft 481kts
12-May-18 20:37 36.587651 -121.266281 130 33056ft 477kts
12-May-18 20:38 36.499805 -121.150931 132 34858ft 462kts
12-May-18 20:39 36.414763 -121.038350 129 36068ft 457kts
12-May-18 20:40 36.333956 -120.922368 129 37015ft 457kts
12-May-18 20:41 36.248897 -120.800449 129 37023ft 485kts
12-May-18 20:42 36.167012 -120.683498 131 37022ft 503kts
12-May-18 20:43 36.081315 -120.561607 131 37019ft 504kts
12-May-18 20:44 35.990413 -120.432910 131 37019ft 505kts
12-May-18 20:45 35.899768 -120.304998 131 37014ft 504kts
12-May-18 20:46 35.792533 -120.199657 152 36990ft 486kts
12-May-18 20:47 35.675357 -120.112720 153 37008ft 500kts
12-May-18 20:48 35.557587 -120.024509 152 37003ft 500kts
12-May-18 20:49 35.440882 -119.936967 152 36984ft 487kts
12-May-18 20:50 35.327070 -119.851883 152 36508ft 480kts
12-May-18 20:51 35.222369 -119.762798 146 34784ft 477kts
12-May-18 20:52 35.117735 -119.665012 148 33087ft 481kts
12-May-18 20:53 35.011713 -119.566377 148 31395ft 488kts
12-May-18 20:54 34.903267 -119.466059 149 29702ft 492kts
12-May-18 20:55 34.796712 -119.370703 148 28017ft 487kts
12-May-18 20:56 34.692620 -119.278442 149 26043ft 465kts
12-May-18 20:57 34.592220 -119.191165 149 23882ft 445kts
12-May-18 20:58 34.497986 -119.108545 147 21682ft 419kts
12-May-18 20:59 34.407420 -119.028851 147 19516ft 402kts
12-May-18 21:00 34.322820 -118.955071 145 17338ft 373kts
12-May-18 21:01 34.245683 -118.885052 144 15143ft 332kts
12-May-18 21:02 34.173417 -118.818747 144 13261ft 330kts
12-May-18 21:03 34.108035 -118.750618 138 11675ft 319kts
12-May-18 21:04 34.047286 -118.684255 138 10241ft 296kts
12-May-18 21:05 34.021362 -118.601950 94 9139ft 287kts
12-May-18 21:06 34.014406 -118.519365 95 8188ft 255kts
12-May-18 21:07 34.008447 -118.448180 86 7399ft 245kts
12-May-18 21:08 34.020637 -118.379223 81 6702ft 243kts
12-May-18 21:09 34.028392 -118.306826 81 5897ft 238kts
12-May-18 21:10 34.036261 -118.231562 82 5044ft 233kts
12-May-18 21:11 34.043894 -118.161450 81 5009ft 226kts
12-May-18 21:12 34.051061 -118.093590 85 4998ft 221kts
12-May-18 21:13 34.016133 -118.060837 197 5024ft 207kts
12-May-18 21:14 33.971729 -118.090473 235 5014ft 201kts
12-May-18 21:15 33.961447 -118.150686 262 4499ft 189kts
12-May-18 21:16 33.955030 -118.210659 263 3877ft 182kts
12-May-18 21:17 33.950074 -118.271150 265 1995ft 189kts
12-May-18 21:18 33.943527 -118.323820 263 1097ft 141kts
12-May-18 21:19 33.938727 -118.369224 263 361ft 130kts
12-May-18 21:20 33.935288 -118.403678 276 120ft 33kts
12-May-18 21:21 33.935788 -118.405925 292 124ft 3kts
12-May-18 21:22 33.936290 -118.408844 331 126ft 8kts
12-May-18 21:23 33.938632 -118.408942 53 126ft 7kts
12-May-18 21:24 33.939132 -118.404639 82 122ft 16kts
12-May-18 21:25 33.939686 -118.399259 83 114ft 14kts
12-May-18 21:26 33.941493 -118.398167 51 113ft 3kts
12-May-18 21:27 33.941576 -118.397877 81 113ft 0kts

Navigation Log

Ident Type
Flight plan parsing failed, navigation log unavailable